createdAt,value
2023-04-25T00:00:16.562Z,93970.88
2023-04-25T00:02:43.964Z,93964.50
2023-04-25T00:05:11.498Z,93957.38
2023-04-25T00:07:38.473Z,93974.63
2023-04-25T00:10:06.286Z,93982.81
2023-04-25T00:12:34.712Z,93966.06
2023-04-25T00:15:01.553Z,93960.03
2023-04-25T00:17:29.010Z,93977.19
2023-04-25T00:19:55.926Z,93977.19
2023-04-25T00:22:22.856Z,93976.06
2023-04-25T00:24:49.772Z,93967.56
2023-04-25T00:27:16.780Z,93981.16
2023-04-25T00:29:43.661Z,93977.72
2023-04-25T00:32:11.028Z,93978.53
2023-04-25T00:34:37.858Z,93983.63
2023-04-25T00:37:04.826Z,93984.44
2023-04-25T00:39:31.712Z,93985.44
2023-04-25T00:41:59.277Z,93980.88
2023-04-25T00:44:27.909Z,93970.88
2023-04-25T00:46:55.797Z,93965.50
2023-04-25T00:49:22.680Z,93934.25
2023-04-25T00:51:49.997Z,93940.03
2023-04-25T00:54:17.993Z,93948.88
2023-04-25T00:56:46.465Z,93949.88
2023-04-25T00:59:14.202Z,93936.50
2023-04-25T01:01:41.484Z,93911.34
2023-04-25T01:04:08.618Z,93918.88
2023-04-25T01:06:35.635Z,93923.75
2023-04-25T01:09:03.969Z,93917.88
2023-04-25T01:11:30.966Z,93905.47
2023-04-25T01:13:57.893Z,93907.44
2023-04-25T01:16:27.983Z,93906.63
2023-04-25T01:18:56.198Z,93911.34
2023-04-25T01:21:23.202Z,93913.94
2023-04-25T01:23:50.389Z,93916.75
2023-04-25T01:26:17.775Z,93910.53
2023-04-25T01:28:44.639Z,93912.63
2023-04-25T01:31:13.270Z,93910.25
2023-04-25T01:33:40.438Z,93920.69
2023-04-25T01:36:07.860Z,93928.53
2023-04-25T01:38:35.004Z,93940.38
2023-04-25T01:41:01.938Z,93924.31
2023-04-25T01:43:28.961Z,93923.00
2023-04-25T01:45:56.072Z,93938.41
2023-04-25T01:48:22.946Z,93912.63
2023-04-25T01:50:49.929Z,93911.66
2023-04-25T01:53:16.880Z,93906.91
2023-04-25T01:55:43.857Z,93908.88
2023-04-25T01:58:11.093Z,93913.16
2023-04-25T02:00:42.051Z,93918.06
2023-04-25T02:03:10.050Z,93913.97
2023-04-25T02:05:39.667Z,93925.72
2023-04-25T02:08:09.609Z,93914.91
2023-04-25T02:10:37.326Z,93921.75
2023-04-25T02:13:06.387Z,93950.22
2023-04-25T02:15:33.466Z,93954.44
2023-04-25T02:18:01.526Z,93953.25
2023-04-25T02:20:31.275Z,93952.59
2023-04-25T02:22:58.205Z,93944.31
2023-04-25T02:25:25.509Z,93929.47
2023-04-25T02:27:52.688Z,93908.88
2023-04-25T02:30:19.635Z,93917.06
2023-04-25T02:32:47.016Z,93911.53
2023-04-25T02:35:14.343Z,93894.06
2023-04-25T02:37:41.886Z,93880.50
2023-04-25T02:40:09.743Z,93880.22
2023-04-25T02:42:37.232Z,93885.59
2023-04-25T02:45:04.784Z,93885.59
2023-04-25T02:47:32.132Z,93875.63
2023-04-25T02:49:59.423Z,93901.91
2023-04-25T02:52:26.586Z,93866.13
2023-04-25T02:54:53.575Z,93881.81
2023-04-25T02:57:20.542Z,93887.19
2023-04-25T02:59:47.384Z,93897.84
2023-04-25T03:02:14.293Z,93890.31
2023-04-25T03:04:41.424Z,93898.66
2023-04-25T03:07:08.447Z,93887.19
2023-04-25T03:09:35.923Z,93883.94
2023-04-25T03:12:02.853Z,93873.81
2023-04-25T03:14:29.745Z,93892.59
2023-04-25T03:16:56.743Z,93886.53
2023-04-25T03:19:23.762Z,93874.78
2023-04-25T03:21:50.725Z,93888.19
2023-04-25T03:24:17.549Z,93877.09
2023-04-25T03:26:44.431Z,93878.38
2023-04-25T03:29:11.311Z,93872.97
2023-04-25T03:31:38.208Z,93893.38
2023-04-25T03:34:05.075Z,93877.97
2023-04-25T03:36:32.007Z,93888.91
2023-04-25T03:38:58.911Z,93883.97
2023-04-25T03:41:26.281Z,93887.13
2023-04-25T03:43:53.323Z,93895.91
2023-04-25T03:46:20.376Z,93882.97
2023-04-25T03:48:47.292Z,93885.25
2023-04-25T03:51:14.147Z,93870.22
2023-04-25T03:53:41.065Z,93882.16
2023-04-25T03:56:08.155Z,93898.97
2023-04-25T03:58:35.033Z,93885.72
2023-04-25T04:01:04.295Z,93898.13
2023-04-25T04:03:31.512Z,93897.75
2023-04-25T04:05:58.579Z,93902.19
2023-04-25T04:08:25.460Z,93895.50
2023-04-25T04:10:52.392Z,93875.22
2023-04-25T04:13:19.280Z,93903.78
2023-04-25T04:15:49.400Z,93879.25
2023-04-25T04:18:16.331Z,93900.84
2023-04-25T04:20:43.146Z,93895.22
2023-04-25T04:23:10.001Z,93900.63
2023-04-25T04:25:37.173Z,93901.94
2023-04-25T04:28:04.292Z,93892.47
2023-04-25T04:30:32.242Z,93888.97
2023-04-25T04:32:59.380Z,93898.31
2023-04-25T04:35:26.518Z,93900.84
2023-04-25T04:37:53.377Z,93886.78
2023-04-25T04:40:21.798Z,93899.84
2023-04-25T04:42:49.356Z,93878.28
2023-04-25T04:45:17.446Z,93897.06
2023-04-25T04:47:44.374Z,93893.56
2023-04-25T04:50:12.071Z,93894.88
2023-04-25T04:52:39.917Z,93898.53
2023-04-25T04:55:07.585Z,93893.59
2023-04-25T04:57:34.613Z,93896.09
2023-04-25T05:00:02.383Z,93899.22
2023-04-25T05:02:29.413Z,93888.59
2023-04-25T05:04:57.930Z,93895.63
2023-04-25T05:07:24.947Z,93880.63
2023-04-25T05:09:51.870Z,93886.66
2023-04-25T05:12:18.783Z,93894.00
2023-04-25T05:14:45.719Z,93894.69
2023-04-25T05:17:12.628Z,93892.09
2023-04-25T05:19:40.619Z,93888.38
2023-04-25T05:22:07.556Z,93887.88
2023-04-25T05:24:34.560Z,93896.69
2023-04-25T05:27:01.481Z,93875.50
2023-04-25T05:29:28.341Z,93891.22
2023-04-25T05:31:55.498Z,93886.63
2023-04-25T05:34:22.461Z,93891.22
2023-04-25T05:36:50.021Z,93862.28
2023-04-25T05:39:20.506Z,93890.41
2023-04-25T05:41:47.443Z,93884.06
2023-04-25T05:44:14.353Z,93872.47
2023-04-25T05:46:41.311Z,93890.50
2023-04-25T05:49:08.137Z,93888.69
2023-04-25T05:51:35.014Z,93904.34
2023-04-25T05:54:01.911Z,93888.06
2023-04-25T05:56:28.758Z,93896.53
2023-04-25T05:58:56.316Z,93863.44
2023-04-25T06:01:24.572Z,93901.88
2023-04-25T06:03:53.132Z,93861.97
2023-04-25T06:06:20.428Z,93897.81
2023-04-25T06:08:47.415Z,93897.34
2023-04-25T06:11:14.352Z,93892.44
2023-04-25T06:13:43.837Z,93865.66
2023-04-25T06:16:10.824Z,93891.31
2023-04-25T06:18:37.731Z,93894.94
2023-04-25T06:21:04.892Z,93902.94
2023-04-25T06:23:31.780Z,93865.06
2023-04-25T06:25:58.764Z,93898.03
2023-04-25T06:28:25.717Z,93887.25
2023-04-25T06:30:52.754Z,93869.94
2023-04-25T06:33:19.674Z,93881.69
2023-04-25T06:35:46.885Z,93867.31
2023-04-25T06:38:14.172Z,93891.66
2023-04-25T06:40:41.211Z,93894.44
2023-04-25T06:43:08.021Z,93886.41
2023-04-25T06:45:34.945Z,93897.34
2023-04-25T06:48:01.998Z,93888.16
2023-04-25T06:50:29.081Z,93891.63
2023-04-25T06:52:56.122Z,93901.63
2023-04-25T06:55:22.955Z,93863.06
2023-04-25T06:57:49.822Z,93888.03
2023-04-25T07:00:17.342Z,93894.88
2023-04-25T07:02:44.918Z,93889.94
2023-04-25T07:05:11.960Z,93882.06
2023-04-25T07:07:38.888Z,93883.88
2023-04-25T07:10:06.730Z,93890.22
2023-04-25T07:12:33.775Z,93878.59
2023-04-25T07:15:00.678Z,93858.03
2023-04-25T07:17:27.553Z,93881.84
2023-04-25T07:19:54.435Z,93869.91
2023-04-25T07:22:21.342Z,93860.59
2023-04-25T07:24:50.009Z,93865.13
2023-04-25T07:27:17.041Z,93868.34
2023-04-25T07:29:43.898Z,93846.09
2023-04-25T07:32:13.454Z,93871.28
2023-04-25T07:34:40.666Z,93883.38
2023-04-25T07:37:07.657Z,93865.34
2023-04-25T07:39:34.568Z,93862.09
2023-04-25T07:42:01.584Z,93879.44
2023-04-25T07:44:28.540Z,93874.66
2023-04-25T07:46:55.509Z,93870.91
2023-04-25T07:49:22.353Z,93877.91
2023-04-25T07:51:49.172Z,93883.31
2023-04-25T07:54:17.168Z,93892.50
2023-04-25T07:56:52.196Z,93895.75
2023-04-25T07:59:20.795Z,93894.69
2023-04-25T08:01:47.699Z,93895.66
2023-04-25T08:04:14.895Z,93896.94
2023-04-25T08:06:41.996Z,93888.78
2023-04-25T08:09:10.560Z,93901.50
2023-04-25T08:11:38.239Z,93893.00
2023-04-25T08:14:05.147Z,93895.91
2023-04-25T08:16:32.233Z,93897.69
2023-04-25T08:19:00.836Z,93896.72
2023-04-25T08:21:28.791Z,93905.69
2023-04-25T08:23:55.796Z,93913.38
2023-04-25T08:26:22.664Z,93912.25
2023-04-25T08:28:49.761Z,93908.81
2023-04-25T08:31:16.966Z,93918.16
2023-04-25T08:33:44.345Z,93932.84
2023-04-25T08:36:11.215Z,93924.03
2023-04-25T08:38:38.334Z,93920.72
2023-04-25T08:41:06.915Z,93931.31
2023-04-25T08:43:34.673Z,93945.81
2023-04-25T08:46:02.806Z,93946.34
2023-04-25T08:48:32.721Z,93953.00
2023-04-25T08:50:59.720Z,93952.34
2023-04-25T08:53:36.275Z,93965.16
2023-04-25T08:56:03.804Z,93964.66
2023-04-25T08:58:31.121Z,93980.34
2023-04-25T09:00:58.083Z,93970.56
2023-04-25T09:03:25.201Z,93980.06
2023-04-25T09:05:52.817Z,93971.88
2023-04-25T09:08:19.727Z,93979.72
2023-04-25T09:10:46.715Z,93997.03
2023-04-25T09:13:16.304Z,93981.53
2023-04-25T09:15:53.680Z,94010.28
2023-04-25T09:18:30.848Z,94005.53
2023-04-25T09:21:14.362Z,94013.41
2023-04-25T09:23:46.916Z,94003.94
2023-04-25T09:26:22.142Z,94021.41
2023-04-25T09:28:49.194Z,94028.88
2023-04-25T09:31:26.358Z,94030.06
2023-04-25T09:34:04.750Z,94026.47
2023-04-25T09:36:32.281Z,94035.94
2023-04-25T09:39:02.404Z,94031.72
2023-04-25T09:41:29.384Z,94027.13
2023-04-25T09:44:00.647Z,94048.22
2023-04-25T09:46:37.642Z,94048.56
2023-04-25T09:49:09.475Z,94041.34
2023-04-25T09:51:36.402Z,94061.97
2023-04-25T09:54:03.285Z,94053.63
2023-04-25T09:56:37.176Z,94060.16
2023-04-25T09:59:04.505Z,94062.44
2023-04-25T10:01:32.013Z,94066.38
2023-04-25T10:04:00.401Z,94076.69
2023-04-25T10:06:29.494Z,94046.69
2023-04-25T10:08:57.423Z,94062.09
2023-04-25T10:11:26.315Z,94080.69
2023-04-25T10:13:54.131Z,94092.50
2023-04-25T10:16:22.385Z,94071.66
2023-04-25T10:18:49.973Z,94081.28
2023-04-25T10:21:17.650Z,94081.69
2023-04-25T10:23:46.639Z,94089.03
2023-04-25T10:26:14.630Z,94081.38
2023-04-25T10:28:58.912Z,94091.09
2023-04-25T10:31:26.142Z,94080.66
2023-04-25T10:33:53.559Z,94089.16
2023-04-25T10:36:23.691Z,94090.53
2023-04-25T10:38:52.197Z,94093.81
2023-04-25T10:41:21.634Z,94092.16
2023-04-25T10:43:50.195Z,94099.47
2023-04-25T10:46:26.100Z,94092.41
2023-04-25T10:48:57.603Z,94096.72
2023-04-25T10:51:25.615Z,94108.19
2023-04-25T10:54:19.144Z,94113.09
2023-04-25T10:56:46.068Z,94089.56
2023-04-25T10:59:20.812Z,94095.81
2023-04-25T11:01:50.433Z,94105.97
2023-04-25T11:04:35.824Z,94099.72
2023-04-25T11:07:24.832Z,94100.03
2023-04-25T11:09:51.747Z,94105.31
2023-04-25T11:12:19.177Z,94097.47
2023-04-25T11:14:46.880Z,94096.97
2023-04-25T11:17:13.798Z,94101.38
2023-04-25T11:19:40.691Z,94103.19
2023-04-25T11:22:09.015Z,94109.06
2023-04-25T11:24:37.773Z,94121.75
2023-04-25T11:27:05.765Z,94108.28
2023-04-25T11:29:35.151Z,94116.63
2023-04-25T11:32:03.456Z,94111.94
2023-04-25T11:34:32.622Z,94111.44
2023-04-25T11:37:00.984Z,94103.94
2023-04-25T11:39:29.457Z,94081.66
2023-04-25T11:41:56.803Z,94100.59
2023-04-25T11:44:24.193Z,94114.75
2023-04-25T11:46:51.130Z,94112.53
2023-04-25T11:49:19.593Z,94102.28
2023-04-25T11:51:49.364Z,94115.19
2023-04-25T11:54:17.050Z,94110.19
2023-04-25T11:56:45.758Z,94120.44
2023-04-25T11:59:14.245Z,94115.34
2023-04-25T12:01:50.316Z,94130.16
2023-04-25T12:04:19.914Z,94128.59
2023-04-25T12:06:49.280Z,94119.28
2023-04-25T12:09:22.764Z,94145.13
2023-04-25T12:11:55.071Z,94127.41
2023-04-25T12:14:31.144Z,94137.75
2023-04-25T12:17:00.914Z,94130.97
2023-04-25T12:19:35.328Z,94139.72
2023-04-25T12:22:06.817Z,94144.03
2023-04-25T12:24:38.942Z,94123.78
2023-04-25T12:27:09.587Z,94132.63
2023-04-25T12:29:48.747Z,94137.78
2023-04-25T12:32:17.857Z,94147.19
2023-04-25T12:34:44.853Z,94160.00
2023-04-25T12:37:12.480Z,94159.66
2023-04-25T12:39:39.335Z,94160.38
2023-04-25T12:42:09.944Z,94155.38
2023-04-25T12:44:36.969Z,94159.50
2023-04-25T12:47:04.760Z,94141.66
2023-04-25T12:49:31.798Z,94156.09
2023-04-25T12:51:59.012Z,94160.16
2023-04-25T12:54:26.738Z,94160.53
2023-04-25T12:56:53.868Z,94153.69
2023-04-25T12:59:21.702Z,94160.88
2023-04-25T13:01:48.885Z,94148.47
2023-04-25T13:04:16.451Z,94157.38
2023-04-25T13:06:43.707Z,94152.53
2023-04-25T13:09:10.733Z,94162.78
2023-04-25T13:11:37.688Z,94165.19
2023-04-25T13:14:06.043Z,94153.28
2023-04-25T13:16:33.257Z,94161.16
2023-04-25T13:19:00.245Z,94161.38
2023-04-25T13:21:28.182Z,94171.22
2023-04-25T13:23:55.317Z,94169.88
2023-04-25T13:26:22.455Z,94181.38
2023-04-25T13:28:49.298Z,94164.50
2023-04-25T13:31:16.163Z,94168.13
2023-04-25T13:33:43.052Z,94176.88
2023-04-25T13:36:09.936Z,94171.56
2023-04-25T13:38:36.818Z,94184.53
2023-04-25T13:41:03.717Z,94188.06
2023-04-25T13:43:30.781Z,94179.75
2023-04-25T13:45:57.682Z,94195.00
2023-04-25T13:48:25.836Z,94196.69
2023-04-25T13:50:52.776Z,94190.88
2023-04-25T13:53:19.740Z,94191.53
2023-04-25T13:55:47.306Z,94194.63
2023-04-25T13:58:14.261Z,94198.69
2023-04-25T14:00:43.504Z,94193.97
2023-04-25T14:03:10.817Z,94194.81
2023-04-25T14:05:39.455Z,94205.06
2023-04-25T14:08:11.161Z,94207.75
2023-04-25T14:10:39.039Z,94196.00
2023-04-25T14:13:07.828Z,94207.66
2023-04-25T14:15:36.234Z,94202.34
2023-04-25T14:18:03.481Z,94199.72
2023-04-25T14:20:31.242Z,94212.94
2023-04-25T14:22:59.411Z,94212.75
2023-04-25T14:25:26.626Z,94220.44
2023-04-25T14:27:54.041Z,94215.06
2023-04-25T14:30:22.729Z,94225.69
2023-04-25T14:32:52.447Z,94229.53
2023-04-25T14:35:19.629Z,94235.22
2023-04-25T14:37:46.770Z,94251.34
2023-04-25T14:40:16.472Z,94251.94
2023-04-25T14:42:43.679Z,94249.56
2023-04-25T14:45:11.148Z,94253.66
2023-04-25T14:47:38.898Z,94244.09
2023-04-25T14:50:07.776Z,94249.00
2023-04-25T14:52:34.647Z,94242.47
2023-04-25T14:55:05.884Z,94243.34
2023-04-25T14:57:34.359Z,94244.97
2023-04-25T15:00:02.070Z,94263.53
2023-04-25T15:02:29.869Z,94260.91
2023-04-25T15:04:59.879Z,94263.63
2023-04-25T15:07:27.009Z,94254.19
2023-04-25T15:09:55.086Z,94254.34
2023-04-25T15:12:21.966Z,94263.47
2023-04-25T15:14:48.843Z,94237.53
2023-04-25T15:17:16.107Z,94250.31
2023-04-25T15:19:43.054Z,94244.91
2023-04-25T15:22:10.051Z,94252.97
2023-04-25T15:24:36.933Z,94247.72
2023-04-25T15:27:05.631Z,94248.94
2023-04-25T15:29:32.507Z,94260.09
2023-04-25T15:31:59.375Z,94262.97
2023-04-25T15:34:26.354Z,94259.16
2023-04-25T15:36:53.222Z,94262.88
2023-04-25T15:39:20.081Z,94263.16
2023-04-25T15:41:48.033Z,94263.56
2023-04-25T15:44:14.962Z,94259.78
2023-04-25T15:46:41.824Z,94257.91
2023-04-25T15:49:08.871Z,94257.78
2023-04-25T15:51:36.088Z,94261.06
2023-04-25T15:54:04.220Z,94261.47
2023-04-25T15:56:31.082Z,94260.72
2023-04-25T15:58:57.898Z,94266.34
2023-04-25T16:01:26.409Z,94254.81
2023-04-25T16:03:53.851Z,94255.72
2023-04-25T16:06:20.998Z,94252.44
2023-04-25T16:08:47.831Z,94245.59
2023-04-25T16:11:15.010Z,94259.13
2023-04-25T16:13:42.123Z,94257.00
2023-04-25T16:16:09.067Z,94252.53
2023-04-25T16:18:36.052Z,94247.38
2023-04-25T16:21:03.936Z,94253.38
2023-04-25T16:23:31.639Z,94254.91
2023-04-25T16:25:58.493Z,94258.41
2023-04-25T16:28:26.107Z,94254.44
2023-04-25T16:30:52.948Z,94253.59
2023-04-25T16:33:19.819Z,94258.44
2023-04-25T16:35:46.651Z,94249.28
2023-04-25T16:38:13.506Z,94257.56
2023-04-25T16:40:40.379Z,94249.22
2023-04-25T16:43:07.241Z,94249.53
2023-04-25T16:45:34.127Z,94245.56
2023-04-25T16:48:01.005Z,94253.78
2023-04-25T16:50:27.903Z,94243.63
2023-04-25T16:52:54.852Z,94252.44
2023-04-25T16:55:21.747Z,94264.13
2023-04-25T16:57:48.636Z,94263.06
2023-04-25T17:00:16.440Z,94264.50
2023-04-25T17:02:43.688Z,94259.47
2023-04-25T17:05:10.878Z,94255.94
2023-04-25T17:07:37.798Z,94265.44
2023-04-25T17:10:05.459Z,94266.44
2023-04-25T17:12:33.792Z,94259.28
2023-04-25T17:15:01.446Z,94271.69
2023-04-25T17:17:28.560Z,94276.69
2023-04-25T17:19:55.493Z,94277.28
2023-04-25T17:22:22.691Z,94277.75
2023-04-25T17:24:49.845Z,94275.16
2023-04-25T17:27:16.739Z,94276.16
2023-04-25T17:29:43.816Z,94287.84
2023-04-25T17:32:10.918Z,94296.88
2023-04-25T17:34:40.297Z,94297.34
2023-04-25T17:37:08.186Z,94295.03
2023-04-25T17:39:35.041Z,94298.81
2023-04-25T17:42:02.570Z,94279.97
2023-04-25T17:44:29.415Z,94294.41
2023-04-25T17:46:56.240Z,94310.63
2023-04-25T17:49:23.066Z,94307.72
2023-04-25T17:51:50.019Z,94312.47
2023-04-25T17:54:17.011Z,94318.06
2023-04-25T17:56:44.957Z,94316.75
2023-04-25T17:59:11.814Z,94319.72
2023-04-25T18:01:38.758Z,94325.00
2023-04-25T18:04:05.978Z,94323.38
2023-04-25T18:06:33.296Z,94332.53
2023-04-25T18:09:00.378Z,94326.31
2023-04-25T18:11:27.278Z,94325.38
2023-04-25T18:13:54.351Z,94327.31
2023-04-25T18:16:21.483Z,94321.75
2023-04-25T18:18:55.469Z,94318.16
2023-04-25T18:21:22.644Z,94335.50
2023-04-25T18:23:49.550Z,94339.44
2023-04-25T18:26:16.388Z,94338.78
2023-04-25T18:28:43.303Z,94338.47
2023-04-25T18:31:10.213Z,94344.84
2023-04-25T18:33:37.113Z,94340.75
2023-04-25T18:36:04.162Z,94346.66
2023-04-25T18:38:35.979Z,94358.47
2023-04-25T18:41:21.114Z,94357.00
2023-04-25T18:43:55.799Z,94357.56
2023-04-25T18:46:23.237Z,94359.38
2023-04-25T18:48:53.795Z,94372.84
2023-04-25T18:51:27.871Z,94367.38
2023-04-25T18:53:54.850Z,94381.63
2023-04-25T18:56:24.441Z,94378.34
2023-04-25T18:58:55.421Z,94381.47
2023-04-25T19:01:24.863Z,94379.31
2023-04-25T19:03:58.670Z,94398.00
2023-04-25T19:06:29.142Z,94393.22
2023-04-25T19:08:57.706Z,94393.06
2023-04-25T19:11:25.258Z,94403.38
2023-04-25T19:13:52.875Z,94408.25
2023-04-25T19:16:19.879Z,94395.28
2023-04-25T19:18:47.300Z,94395.66
2023-04-25T19:21:14.743Z,94398.91
2023-04-25T19:23:41.886Z,94390.38
2023-04-25T19:26:08.863Z,94406.06
2023-04-25T19:28:35.728Z,94408.53
2023-04-25T19:31:02.654Z,94410.16
2023-04-25T19:33:29.644Z,94417.97
2023-04-25T19:35:56.574Z,94414.31
2023-04-25T19:38:23.467Z,94417.03
2023-04-25T19:40:50.379Z,94420.19
2023-04-25T19:43:17.753Z,94420.50
2023-04-25T19:45:44.661Z,94410.47
2023-04-25T19:48:12.571Z,94421.63
2023-04-25T19:50:39.464Z,94415.72
2023-04-25T19:53:06.283Z,94425.22
2023-04-25T19:55:33.134Z,94414.38
2023-04-25T19:58:00.174Z,94426.84
2023-04-25T20:00:27.052Z,94419.63
2023-04-25T20:02:54.033Z,94423.53
2023-04-25T20:05:21.009Z,94429.41
2023-04-25T20:07:47.835Z,94429.28
2023-04-25T20:10:15.928Z,94429.13
2023-04-25T20:12:42.880Z,94426.13
2023-04-25T20:15:11.846Z,94431.38
2023-04-25T20:17:42.708Z,94435.28
2023-04-25T20:20:11.573Z,94434.66
2023-04-25T20:22:40.607Z,94433.31
2023-04-25T20:25:10.056Z,94440.50
2023-04-25T20:27:40.435Z,94438.56
2023-04-25T20:30:09.429Z,94436.09
2023-04-25T20:32:37.305Z,94439.91
2023-04-25T20:35:07.297Z,94442.97
2023-04-25T20:37:34.878Z,94447.03
2023-04-25T20:40:06.524Z,94447.06
2023-04-25T20:42:34.403Z,94444.31
2023-04-25T20:45:01.446Z,94445.31
2023-04-25T20:47:29.321Z,94433.22
2023-04-25T20:49:56.374Z,94438.78
2023-04-25T20:52:23.969Z,94440.97
2023-04-25T20:54:52.687Z,94441.31
2023-04-25T20:57:19.522Z,94444.47
2023-04-25T20:59:46.843Z,94447.75
2023-04-25T21:02:15.819Z,94448.44
2023-04-25T21:04:46.772Z,94449.09
2023-04-25T21:07:13.743Z,94453.97
2023-04-25T21:09:45.698Z,94447.47
2023-04-25T21:12:12.636Z,94456.88
2023-04-25T21:14:39.503Z,94461.38
2023-04-25T21:17:06.427Z,94453.38
2023-04-25T21:19:33.514Z,94460.72
2023-04-25T21:22:00.533Z,94471.22
2023-04-25T21:24:27.569Z,94465.19
2023-04-25T21:26:54.414Z,94468.69
2023-04-25T21:29:21.255Z,94466.53
2023-04-25T21:31:48.447Z,94470.63
2023-04-25T21:34:15.316Z,94464.81
2023-04-25T21:36:42.374Z,94462.78
2023-04-25T21:39:11.009Z,94468.22
2023-04-25T21:41:38.169Z,94462.72
2023-04-25T21:44:05.157Z,94471.75
2023-04-25T21:46:32.109Z,94466.50
2023-04-25T21:48:59.049Z,94471.94
2023-04-25T21:51:25.924Z,94479.38
2023-04-25T21:53:53.138Z,94475.91
2023-04-25T21:56:19.956Z,94483.72
2023-04-25T21:58:46.867Z,94479.09
2023-04-25T22:01:15.979Z,94486.50
2023-04-25T22:03:43.160Z,94483.25
2023-04-25T22:06:10.146Z,94484.91
2023-04-25T22:08:37.531Z,94478.28
2023-04-25T22:11:07.369Z,94480.44
2023-04-25T22:13:34.201Z,94485.00
2023-04-25T22:16:01.098Z,94474.88
2023-04-25T22:18:28.134Z,94490.75
2023-04-25T22:20:55.019Z,94481.75
2023-04-25T22:23:22.824Z,94485.81
2023-04-25T22:25:49.652Z,94491.88
2023-04-25T22:28:16.736Z,94492.97
2023-04-25T22:30:44.096Z,94497.78
2023-04-25T22:33:11.295Z,94490.09
2023-04-25T22:35:38.226Z,94497.88
2023-04-25T22:38:05.079Z,94499.22
2023-04-25T22:40:32.025Z,94493.25
2023-04-25T22:42:58.930Z,94498.81
2023-04-25T22:45:25.763Z,94500.03
2023-04-25T22:47:53.488Z,94503.34
2023-04-25T22:50:20.679Z,94496.44
2023-04-25T22:52:48.741Z,94495.63
2023-04-25T22:55:15.932Z,94503.09
2023-04-25T22:57:43.224Z,94493.50
2023-04-25T23:00:20.369Z,94490.78
2023-04-25T23:02:48.859Z,94502.31
2023-04-25T23:05:15.916Z,94504.50
2023-04-25T23:07:44.769Z,94512.38
2023-04-25T23:10:12.536Z,94521.56
2023-04-25T23:12:40.374Z,94516.91
2023-04-25T23:15:08.614Z,94517.44
2023-04-25T23:17:35.537Z,94522.09
2023-04-25T23:20:02.423Z,94522.53
2023-04-25T23:22:29.835Z,94517.16
2023-04-25T23:24:56.866Z,94529.53
2023-04-25T23:27:23.698Z,94517.69
2023-04-25T23:29:58.091Z,94514.94
2023-04-25T23:32:26.509Z,94512.09
2023-04-25T23:34:53.499Z,94509.19
2023-04-25T23:37:20.386Z,94516.06
2023-04-25T23:39:51.003Z,94510.16
2023-04-25T23:42:18.844Z,94512.78
2023-04-25T23:44:45.788Z,94518.25
2023-04-25T23:47:14.310Z,94518.81
2023-04-25T23:49:41.528Z,94512.50
2023-04-25T23:52:08.508Z,94519.06
2023-04-25T23:54:35.939Z,94519.66
2023-04-25T23:57:05.798Z,94523.22
2023-04-25T23:59:32.838Z,94529.94
